Amberley Aerodrome, Australia
Current Conditions -  °F | °C
As of 2:00 AM on Tuesday 25 Nov 2014 (Local Time) from YAMB Reporting Station
Scattered Clouds Scattered Clouds  
Wind Chill: 66°   Ceiling: Unl
Heat Index: 66°   Visibility: 6mi
Dew Point: 64°   Wind: 0mph
Humidity: 94%   Direction: NA
Pressure: 29.91"   Gusts: NA
Location:  27.63°S, 152.72°E
Report Text: YAMB 241600Z AUTO 00000KT 9999 // SCT025 19/18 Q1013
Loading
Personal Weather Stations






























Interactive Weather Map New forecast layout! Learn more

10-Day Weather Forecast

Advertisements
Track Severe Weather on mobile